今朝の羽田(2017/03/11)

ANA880/JA871A(B789)

APJ1078/JA815P(A320)

ANA822/JA623A(B763) with winglet

ANA968/JA834A(B788)

ANA844/JA890A(B789)

*TTW217/B-50005(A320)

JAL34/JA867J(B789)

ANA8554/JA811A(B788)

JAL36/JA703J(B772)

SIA636/9V-SWY(B77W)

ANA850/JA886A(B789)

THA682/HS-TGO(B744)

*APJ1029/JA815P(A320)

*JAL8122/JA607J(B763) with winglet

ANA856/JA885A(B789)

ANA204/JA787A(B77W)

JAL70/JA835J(B788)

*KAL720/HL8249(B739)

*AAR177/HL8279(A321)

*ANA9352/JA777A(B77W)

*HKE625/B-LCI(A320)

BAW7/G-STBG(B77W)

RJTT 102000Z 01015KT 9999 BKN060 06/M03 Q1017 NOSIG RMK 7SC060 A3005

RJTT 102100Z 01011KT 9999 FEW030 BKN070 BKN080 06/M04 Q1018 NOSIG RMK 1CU030 5AC070 6AC080 A3006

RJTT 102200Z 03010KT 9999 FEW030 BKN070 BKN080 06/M04 Q1018 NOSIG RMK 1CU030 5AC070 6AC080 A3008

今朝の羽田は雲があります。